createdAt,value
2022-09-15T00:00:14.056Z,6.17
2022-09-15T00:03:15.774Z,6.23
2022-09-15T00:06:17.970Z,6.50
2022-09-15T00:09:19.631Z,6.10
2022-09-15T00:12:21.215Z,5.60
2022-09-15T00:15:23.591Z,5.27
2022-09-15T00:18:25.294Z,5.27
2022-09-15T00:21:30.346Z,5.00
2022-09-15T00:24:31.972Z,4.80
2022-09-15T00:27:34.152Z,5.10
2022-09-15T00:30:40.984Z,4.07
2022-09-15T00:33:43.029Z,4.33
2022-09-15T00:36:44.791Z,4.20
2022-09-15T00:39:46.659Z,4.10
2022-09-15T00:42:48.251Z,5.27
2022-09-15T00:45:50.569Z,4.23
2022-09-15T00:49:15.843Z,4.30
2022-09-15T00:52:24.608Z,4.20
2022-09-15T00:55:41.742Z,3.23
2022-09-15T00:58:52.140Z,4.33
2022-09-15T01:02:22.248Z,3.90
2022-09-15T01:05:29.974Z,3.67
2022-09-15T01:08:36.352Z,4.07
2022-09-15T01:11:39.807Z,3.30
2022-09-15T01:14:41.350Z,3.53
2022-09-15T01:18:13.893Z,3.73
2022-09-15T01:21:22.075Z,3.47
2022-09-15T01:24:51.869Z,4.00
2022-09-15T01:28:22.686Z,3.60
2022-09-15T01:32:21.008Z,3.83
2022-09-15T01:35:22.670Z,4.00
2022-09-15T01:38:49.417Z,4.03
2022-09-15T01:41:55.915Z,3.50
2022-09-15T01:45:08.850Z,3.77
2022-09-15T01:48:11.509Z,3.87
2022-09-15T01:51:14.177Z,3.17
2022-09-15T01:54:17.417Z,4.30
2022-09-15T01:57:21.548Z,4.27
2022-09-15T02:00:23.103Z,4.90
2022-09-15T02:03:44.171Z,4.23
2022-09-15T02:07:00.829Z,5.50
2022-09-15T02:10:12.990Z,4.53
2022-09-15T02:13:42.749Z,5.80
2022-09-15T02:16:49.991Z,6.37
2022-09-15T02:19:58.319Z,5.90
2022-09-15T02:23:08.425Z,6.60
2022-09-15T02:26:16.754Z,7.10
2022-09-15T02:29:21.113Z,7.20
2022-09-15T02:32:25.174Z,6.70
2022-09-15T02:35:29.656Z,6.53
2022-09-15T02:38:37.585Z,6.43
2022-09-15T02:41:39.965Z,7.70
2022-09-15T02:44:42.126Z,6.10
2022-09-15T02:47:43.702Z,6.33
2022-09-15T02:50:45.249Z,6.40
2022-09-15T02:53:46.807Z,4.70
2022-09-15T02:56:48.355Z,5.13
2022-09-15T03:00:08.485Z,5.33
2022-09-15T03:03:10.192Z,4.57
2022-09-15T03:06:16.372Z,4.40
2022-09-15T03:09:18.080Z,4.77
2022-09-15T03:12:20.222Z,4.30
2022-09-15T03:15:24.547Z,4.10
2022-09-15T03:18:26.117Z,3.60
2022-09-15T03:21:29.587Z,3.77
2022-09-15T03:24:31.164Z,3.50
2022-09-15T03:27:34.168Z,3.70
2022-09-15T03:30:35.687Z,3.60
2022-09-15T03:33:38.449Z,4.17
2022-09-15T03:36:41.103Z,3.23
2022-09-15T03:39:45.511Z,3.60
2022-09-15T03:42:47.550Z,2.67
2022-09-15T03:45:49.327Z,2.80
2022-09-15T03:48:50.957Z,3.10
2022-09-15T03:51:52.609Z,2.60
2022-09-15T03:54:54.153Z,2.60
2022-09-15T03:57:55.765Z,2.73
2022-09-15T04:00:57.349Z,2.93
2022-09-15T04:03:59.136Z,2.30
2022-09-15T04:07:00.685Z,1.60
2022-09-15T04:10:02.552Z,2.10
2022-09-15T04:13:04.107Z,2.43
2022-09-15T04:16:17.864Z,2.40
2022-09-15T04:19:19.521Z,2.83
2022-09-15T04:22:21.483Z,2.60
2022-09-15T04:25:24.672Z,1.70
2022-09-15T04:28:27.707Z,1.97
2022-09-15T04:31:29.369Z,2.03
2022-09-15T04:34:30.982Z,2.23
2022-09-15T04:37:33.361Z,2.93
2022-09-15T04:40:34.952Z,3.00
2022-09-15T04:43:37.170Z,3.27
2022-09-15T04:46:38.852Z,3.50
2022-09-15T04:49:40.557Z,3.30
2022-09-15T04:52:44.396Z,3.87
2022-09-15T04:55:46.172Z,3.60
2022-09-15T04:58:53.749Z,3.90
2022-09-15T05:01:55.971Z,3.80
2022-09-15T05:04:58.291Z,4.37
2022-09-15T05:08:00.861Z,4.53
2022-09-15T05:11:08.448Z,4.63
2022-09-15T05:14:10.996Z,4.53
2022-09-15T05:17:12.564Z,4.90
2022-09-15T05:20:14.184Z,5.97
2022-09-15T05:23:15.825Z,5.47
2022-09-15T05:26:20.006Z,6.80
2022-09-15T05:29:21.544Z,6.67
2022-09-15T05:32:23.149Z,6.67
2022-09-15T05:35:24.683Z,7.47
2022-09-15T05:38:29.616Z,8.07
2022-09-15T05:41:31.190Z,8.20
2022-09-15T05:44:32.830Z,6.97
2022-09-15T05:47:34.583Z,6.43
2022-09-15T05:50:36.720Z,5.60
2022-09-15T05:53:38.815Z,5.53
2022-09-15T05:56:40.446Z,5.80
2022-09-15T05:59:43.812Z,5.67
2022-09-15T06:02:45.515Z,6.50
2022-09-15T06:05:47.874Z,6.33
2022-09-15T06:08:58.058Z,5.87
2022-09-15T06:12:00.315Z,6.70
2022-09-15T06:15:02.089Z,6.10
2022-09-15T06:18:03.853Z,6.53
2022-09-15T06:21:11.639Z,6.00
2022-09-15T06:24:13.234Z,6.30
2022-09-15T06:27:14.839Z,6.03
2022-09-15T06:30:17.731Z,6.87
2022-09-15T06:33:19.268Z,6.20
2022-09-15T06:36:22.932Z,6.50
2022-09-15T06:39:24.614Z,6.13
2022-09-15T06:42:26.283Z,6.00
2022-09-15T06:45:29.060Z,6.20
2022-09-15T06:48:32.096Z,6.37
2022-09-15T06:51:35.517Z,5.60
2022-09-15T06:54:37.260Z,5.60
2022-09-15T06:57:38.781Z,6.10
2022-09-15T07:00:40.459Z,5.63
2022-09-15T07:03:43.998Z,5.93
2022-09-15T07:06:45.976Z,5.23
2022-09-15T07:09:49.196Z,6.17
2022-09-15T07:12:51.035Z,5.33
2022-09-15T07:15:56.009Z,5.97
2022-09-15T07:19:00.427Z,5.70
2022-09-15T07:22:02.048Z,5.47
2022-09-15T07:25:03.964Z,6.30
2022-09-15T07:28:05.501Z,6.43
2022-09-15T07:31:08.581Z,5.90
2022-09-15T07:34:10.333Z,5.33
2022-09-15T07:37:11.872Z,5.00
2022-09-15T07:40:13.925Z,5.40
2022-09-15T07:43:16.186Z,4.53
2022-09-15T07:46:19.753Z,5.67
2022-09-15T07:49:21.304Z,5.30
2022-09-15T07:52:22.905Z,4.50
2022-09-15T07:55:24.736Z,4.13
2022-09-15T07:58:26.748Z,5.17
2022-09-15T08:01:28.558Z,4.20
2022-09-15T08:04:30.167Z,3.87
2022-09-15T08:07:31.746Z,4.40
2022-09-15T08:10:33.686Z,4.70
2022-09-15T08:13:35.783Z,4.80
2022-09-15T08:16:38.259Z,3.93
2022-09-15T08:19:39.916Z,3.90
2022-09-15T08:22:42.010Z,4.20
2022-09-15T08:25:43.658Z,3.27
2022-09-15T08:28:45.362Z,3.17
2022-09-15T08:31:47.915Z,3.43
2022-09-15T08:34:49.674Z,3.57
2022-09-15T08:37:54.058Z,3.40
2022-09-15T08:41:14.379Z,3.67
2022-09-15T08:44:40.019Z,3.83
2022-09-15T08:47:46.415Z,3.67
2022-09-15T08:50:52.269Z,4.10
2022-09-15T08:54:00.977Z,3.20
2022-09-15T08:57:06.008Z,4.00
2022-09-15T09:00:15.394Z,4.57
2022-09-15T09:03:39.605Z,2.80
2022-09-15T09:07:04.239Z,3.00
2022-09-15T09:10:30.629Z,2.70
2022-09-15T09:14:03.523Z,2.70
2022-09-15T09:17:23.277Z,3.10
2022-09-15T09:20:37.163Z,2.60
2022-09-15T09:23:58.089Z,3.13
2022-09-15T09:26:59.723Z,3.33
2022-09-15T09:30:04.882Z,3.73
2022-09-15T09:33:25.056Z,4.53
2022-09-15T09:36:27.006Z,4.17
2022-09-15T09:39:28.771Z,3.80
2022-09-15T09:42:33.476Z,4.17
2022-09-15T09:45:35.126Z,3.60
2022-09-15T09:48:36.905Z,4.00
2022-09-15T09:51:53.984Z,3.90
2022-09-15T09:55:01.437Z,3.80
2022-09-15T09:58:19.273Z,3.53
2022-09-15T10:01:23.668Z,3.77
2022-09-15T10:04:25.321Z,3.70
2022-09-15T10:07:30.242Z,3.50
2022-09-15T10:10:35.488Z,4.20
2022-09-15T10:13:50.643Z,5.13
2022-09-15T10:16:56.611Z,4.30
2022-09-15T10:19:59.080Z,4.60
2022-09-15T10:23:07.333Z,4.97
2022-09-15T10:26:22.922Z,5.77
2022-09-15T10:29:24.628Z,5.13
2022-09-15T10:32:31.688Z,5.23
2022-09-15T10:35:33.464Z,5.93
2022-09-15T10:38:42.414Z,5.87
2022-09-15T10:41:57.467Z,6.40
2022-09-15T10:45:01.871Z,6.50
2022-09-15T10:48:09.763Z,6.03
2022-09-15T10:51:21.147Z,5.43
2022-09-15T10:54:31.694Z,6.10
2022-09-15T10:57:49.788Z,5.63
2022-09-15T11:01:24.570Z,6.40
2022-09-15T11:04:33.570Z,5.63
2022-09-15T11:08:15.137Z,5.27
2022-09-15T11:11:25.397Z,7.27
2022-09-15T11:14:50.266Z,6.40
2022-09-15T11:18:21.346Z,6.60
2022-09-15T11:21:37.538Z,7.30
2022-09-15T11:24:55.835Z,7.20
2022-09-15T11:28:09.937Z,7.13
2022-09-15T11:31:21.006Z,7.90
2022-09-15T11:34:30.359Z,8.43
2022-09-15T11:37:47.093Z,8.00
2022-09-15T11:41:06.507Z,8.13
2022-09-15T11:44:16.038Z,8.00
2022-09-15T11:47:38.690Z,8.23
2022-09-15T11:50:45.174Z,8.10
2022-09-15T11:53:55.704Z,9.17
2022-09-15T11:56:59.452Z,7.80
2022-09-15T12:00:14.619Z,8.57
2022-09-15T12:03:26.292Z,8.93
2022-09-15T12:06:43.281Z,8.17
2022-09-15T12:09:48.143Z,7.30
2022-09-15T12:12:51.463Z,8.80
2022-09-15T12:15:53.659Z,7.97
2022-09-15T12:19:21.927Z,8.37
2022-09-15T12:22:40.908Z,7.53
2022-09-15T12:26:08.280Z,6.80
2022-09-15T12:29:42.195Z,6.53
2022-09-15T12:32:44.251Z,7.37
2022-09-15T12:35:45.811Z,7.40
2022-09-15T12:38:48.927Z,6.50
2022-09-15T12:41:56.314Z,6.77
2022-09-15T12:45:20.789Z,6.20
2022-09-15T12:48:27.515Z,5.53
2022-09-15T12:51:29.849Z,5.03
2022-09-15T12:54:33.947Z,5.50
2022-09-15T12:57:37.734Z,6.60
2022-09-15T13:00:49.886Z,7.00
2022-09-15T13:04:03.035Z,6.40
2022-09-15T13:07:17.102Z,5.27
2022-09-15T13:10:31.813Z,5.00
2022-09-15T13:13:43.794Z,4.70
2022-09-15T13:16:59.535Z,4.90
2022-09-15T13:20:09.515Z,3.80
2022-09-15T13:23:15.437Z,4.00
2022-09-15T13:26:23.932Z,4.17
2022-09-15T13:29:28.748Z,4.63
2022-09-15T13:32:49.640Z,4.80
2022-09-15T13:38:04.111Z,3.97
2022-09-15T13:40:25.309Z,4.70
2022-09-15T13:43:52.748Z,4.37
2022-09-15T13:47:27.608Z,4.90
2022-09-15T13:50:40.098Z,4.23
2022-09-15T13:53:49.406Z,5.00
2022-09-15T13:56:53.237Z,4.43
2022-09-15T13:59:54.941Z,4.53
2022-09-15T14:03:00.180Z,5.30
2022-09-15T14:06:01.833Z,5.03
2022-09-15T14:09:12.491Z,4.80
2022-09-15T14:12:15.761Z,5.00
2022-09-15T14:15:24.257Z,5.30
2022-09-15T14:18:25.959Z,5.40
2022-09-15T14:21:33.455Z,4.80
2022-09-15T14:24:40.179Z,5.10
2022-09-15T14:27:45.644Z,5.90
2022-09-15T14:30:48.535Z,4.70
2022-09-15T14:33:50.263Z,5.13
2022-09-15T14:37:02.663Z,4.70
2022-09-15T14:40:19.707Z,4.97
2022-09-15T14:43:41.938Z,4.93
2022-09-15T14:46:43.576Z,5.37
2022-09-15T14:49:45.613Z,4.67
2022-09-15T14:53:04.224Z,5.27
2022-09-15T14:56:11.467Z,4.93
2022-09-15T14:59:35.628Z,5.10
2022-09-15T15:03:19.470Z,5.00
2022-09-15T15:06:52.974Z,5.17
2022-09-15T15:10:21.746Z,4.93
2022-09-15T15:13:23.511Z,5.10
2022-09-15T15:16:28.326Z,5.03
2022-09-15T15:19:34.742Z,4.80
2022-09-15T15:22:37.733Z,4.50
2022-09-15T15:25:39.778Z,4.37
2022-09-15T15:28:41.348Z,4.83
2022-09-15T15:31:42.969Z,4.40
2022-09-15T15:34:55.710Z,4.70
2022-09-15T15:38:18.100Z,4.47
2022-09-15T15:41:26.180Z,4.70
2022-09-15T15:44:29.651Z,4.70
2022-09-15T15:47:35.300Z,4.30
2022-09-15T15:50:37.243Z,4.50
2022-09-15T15:53:39.996Z,3.70
2022-09-15T15:56:42.268Z,3.60
2022-09-15T15:59:43.798Z,3.60
2022-09-15T16:02:48.868Z,3.20
2022-09-15T16:05:57.537Z,3.70
2022-09-15T16:08:59.978Z,3.83
2022-09-15T16:12:01.750Z,3.47
2022-09-15T16:15:10.846Z,3.70
2022-09-15T16:18:12.980Z,3.67
2022-09-15T16:21:27.191Z,3.47
2022-09-15T16:24:28.786Z,3.63
2022-09-15T16:27:30.523Z,3.40
2022-09-15T16:30:32.700Z,3.20
2022-09-15T16:33:38.015Z,3.43
2022-09-15T16:36:39.916Z,3.40
2022-09-15T16:39:41.477Z,2.87
2022-09-15T16:42:43.379Z,3.23
2022-09-15T16:45:45.615Z,3.50
2022-09-15T16:48:47.380Z,3.00
2022-09-15T16:51:48.944Z,3.60
2022-09-15T16:54:50.516Z,3.57
2022-09-15T16:57:52.069Z,3.80
2022-09-15T17:00:53.843Z,3.83
2022-09-15T17:03:55.776Z,3.37
2022-09-15T17:06:57.502Z,3.67
2022-09-15T17:09:59.039Z,3.50
2022-09-15T17:13:01.595Z,3.30
2022-09-15T17:16:03.228Z,3.10
2022-09-15T17:19:04.792Z,3.40
2022-09-15T17:22:07.935Z,3.70
2022-09-15T17:25:19.123Z,5.00
2022-09-15T17:28:23.824Z,3.47
2022-09-15T17:31:25.759Z,3.50
2022-09-15T17:34:27.710Z,4.60
2022-09-15T17:37:29.268Z,4.63
2022-09-15T17:40:31.831Z,4.87
2022-09-15T17:43:33.604Z,4.80
2022-09-15T17:46:35.248Z,4.20
2022-09-15T17:49:36.854Z,3.90
2022-09-15T17:52:39.005Z,4.97
2022-09-15T17:55:41.198Z,3.93
2022-09-15T17:58:43.189Z,5.00
2022-09-15T18:01:44.795Z,4.17
2022-09-15T18:04:46.696Z,3.93
2022-09-15T18:07:48.986Z,4.00
2022-09-15T18:10:51.453Z,4.23
2022-09-15T18:13:53.223Z,4.00
2022-09-15T18:16:54.830Z,4.70
2022-09-15T18:19:56.379Z,4.80
2022-09-15T18:22:58.912Z,4.77
2022-09-15T18:26:00.471Z,5.00
2022-09-15T18:29:02.056Z,5.57
2022-09-15T18:32:04.219Z,5.53
2022-09-15T18:35:06.628Z,5.90
2022-09-15T18:38:08.364Z,5.40
2022-09-15T18:41:11.629Z,5.00
2022-09-15T18:44:13.181Z,5.70
2022-09-15T18:47:14.777Z,4.97
2022-09-15T18:50:18.676Z,5.20
2022-09-15T18:53:20.312Z,4.67
2022-09-15T18:56:21.884Z,3.73
2022-09-15T18:59:23.563Z,3.63
2022-09-15T19:02:25.499Z,4.10
2022-09-15T19:05:28.565Z,4.37
2022-09-15T19:08:30.295Z,3.87
2022-09-15T19:11:31.916Z,3.20
2022-09-15T19:14:33.891Z,3.60
2022-09-15T19:17:35.596Z,3.47
2022-09-15T19:20:37.533Z,3.70
2022-09-15T19:23:39.490Z,3.50
2022-09-15T19:26:42.175Z,3.23
2022-09-15T19:29:43.734Z,3.37
2022-09-15T19:32:45.455Z,2.93
2022-09-15T19:35:47.260Z,3.23
2022-09-15T19:38:48.876Z,3.27
2022-09-15T19:41:50.792Z,3.63
2022-09-15T19:44:52.618Z,3.37
2022-09-15T19:47:54.322Z,2.80
2022-09-15T19:50:56.022Z,3.07
2022-09-15T19:53:59.381Z,2.83
2022-09-15T19:57:01.409Z,2.27
2022-09-15T20:00:36.493Z,3.20
2022-09-15T20:03:29.327Z,3.30
2022-09-15T20:06:32.707Z,4.80
2022-09-15T20:09:34.959Z,4.23
2022-09-15T20:12:36.551Z,3.53
2022-09-15T20:15:38.386Z,4.30
2022-09-15T20:18:42.773Z,3.57
2022-09-15T20:21:50.478Z,3.03
2022-09-15T20:24:52.896Z,3.43
2022-09-15T20:27:54.607Z,2.80
2022-09-15T20:31:04.040Z,2.43
2022-09-15T20:34:11.244Z,2.20
2022-09-15T20:37:15.686Z,2.07
2022-09-15T20:40:17.617Z,2.90
2022-09-15T20:43:19.596Z,2.33
2022-09-15T20:46:23.460Z,2.50
2022-09-15T20:49:25.464Z,2.90
2022-09-15T20:52:34.733Z,2.47
2022-09-15T20:55:37.864Z,2.80
2022-09-15T20:58:39.917Z,2.73
2022-09-15T21:01:41.868Z,2.60
2022-09-15T21:04:43.794Z,2.47
2022-09-15T21:07:48.055Z,2.77
2022-09-15T21:10:49.857Z,2.30
2022-09-15T21:13:51.615Z,2.70
2022-09-15T21:16:53.748Z,2.27
2022-09-15T21:19:55.547Z,2.20
2022-09-15T21:22:57.611Z,2.60
2022-09-15T21:26:06.117Z,1.90
2022-09-15T21:29:08.417Z,2.50
2022-09-15T21:32:10.084Z,2.37
2022-09-15T21:35:11.731Z,2.30
2022-09-15T21:38:13.460Z,2.70
2022-09-15T21:41:17.437Z,2.57
2022-09-15T21:44:18.957Z,2.57
2022-09-15T21:47:20.517Z,2.10
2022-09-15T21:50:22.043Z,2.60
2022-09-15T21:53:28.581Z,2.43
2022-09-15T21:56:30.330Z,2.63
2022-09-15T21:59:31.914Z,2.60
2022-09-15T22:02:33.939Z,3.00
2022-09-15T22:05:35.527Z,2.30
2022-09-15T22:08:38.199Z,2.50
2022-09-15T22:11:40.476Z,2.40
2022-09-15T22:14:42.466Z,2.53
2022-09-15T22:17:44.081Z,2.77
2022-09-15T22:20:45.704Z,2.50
2022-09-15T22:23:48.979Z,2.33
2022-09-15T22:26:50.539Z,2.60
2022-09-15T22:29:52.118Z,1.90
2022-09-15T22:32:53.676Z,2.47
2022-09-15T22:35:56.823Z,2.53
2022-09-15T22:39:04.238Z,2.43
2022-09-15T22:42:06.375Z,2.43
2022-09-15T22:45:08.597Z,2.83
2022-09-15T22:48:10.217Z,2.70
2022-09-15T22:51:12.077Z,3.70
2022-09-15T22:54:13.711Z,3.63
2022-09-15T22:57:15.245Z,5.50
2022-09-15T23:00:17.183Z,3.40
2022-09-15T23:03:18.730Z,3.40
2022-09-15T23:06:25.347Z,3.97
2022-09-15T23:09:27.819Z,2.77
2022-09-15T23:12:32.920Z,2.10
2022-09-15T23:15:35.054Z,2.33
2022-09-15T23:18:36.815Z,2.57
2022-09-15T23:21:38.448Z,2.37
2022-09-15T23:24:40.039Z,2.50
2022-09-15T23:27:41.594Z,2.70
2022-09-15T23:30:43.386Z,2.70
2022-09-15T23:33:45.339Z,2.57
2022-09-15T23:36:46.967Z,2.40
2022-09-15T23:39:48.583Z,2.67
2022-09-15T23:42:50.147Z,2.40
2022-09-15T23:45:51.875Z,2.23
2022-09-15T23:48:53.448Z,2.23
2022-09-15T23:51:54.991Z,2.10
2022-09-15T23:54:56.559Z,2.60
2022-09-15T23:57:58.457Z,2.30
